Cosco Aden — VRKF9 — position and weather

sailwx.info

Track history (hours):
 
Tides and Currents Weather Stations Pressure Air Temp Water Temp Dewpoint Dewpoint Depression Visibility Wind Speed Wind Dir Waves Ship Positions

Cosco Aden

Last reported at 2015-Aug-24 23:00 UTC. Time now 2015-Sep-01 14:11 UTC.
Position N 49°24' E 177°36'.

Length 261 m; draft 10 m.

Type: Other ship. MMSI: 477765900.

Wind from 050 at 20 knots

Waves 2.5 meters (8 feet)

Barometer 1016.0 mb
Air temperature 12.0 ° C
Visibility: greater than 2.2 NM
Water temperature 12.0 ° C

Date/timePositionNaut miles runAvg speedWind from/ knotsBaromVisibWave heightAir tempDewpointWater temp
2015-Aug-24 23:00N 49°24' E 177°36'   050 / 201016.0 2.2 2.512.0 12.0
2015-Aug-19 02:13N 35°23' W 132°08'4119.4
2015-Aug-19 00:07N 35°01' W 131°26'1219.5
2015-Aug-18 23:30N 34°54' W 131°14'6019.2
2015-Aug-18 20:23N 34°20' W 130°14'1719.1
2015-Aug-18 19:30N 34°10' W 129°58'2119.0
2015-Aug-18 18:24N 33°58' W 129°37'2119.0
2015-Aug-18 17:17N 33°45' W 129°16'1718.9
2015-Aug-18 16:23N 33°35' W 128°60'12918.9
2015-Aug-18 09:33N 32°19' W 126°56'1918.7
2015-Aug-18 08:32N 32°07' W 126°38'2018.5
2015-Aug-18 07:27N 31°55' W 126°19'6118.7
2015-Aug-18 04:12N 31°18' W 125°23'119.0
2015-Aug-18 04:09N 31°17' W 125°22'019.6
2015-Aug-18 04:08N 31°17' W 125°22'1219.0
2015-Aug-18 03:30N 31°10' W 125°11'1819.0
2015-Aug-18 02:33N 30°59' W 124°54'1919.2
2015-Aug-18 01:33N 30°47' W 124°36'1919.1
2015-Aug-18 00:33N 30°36' W 124°19'1919.0
2015-Aug-17 23:33N 30°24' W 124°02'1919.2
2015-Aug-17 22:33N 30°12' W 123°44'1919.4
2015-Aug-17 21:33N 29°60' W 123°27'1919.4
2015-Aug-17 20:33N 29°47' W 123°09'1919.5
2015-Aug-17 19:33N 29°35' W 122°52'2019.5
2015-Aug-17 18:33N 29°23' W 122°34'2019.5
2015-Aug-17 17:33N 29°11' W 122°17'1919.4
2015-Aug-17 16:33N 28°58' W 122°00'1919.4
2015-Aug-17 15:33N 28°45' W 121°43'2019.6
2015-Aug-17 14:33N 28°33' W 121°26'2019.7
2015-Aug-17 13:33N 28°21' W 121°09'2019.6
2015-Aug-17 12:33N 28°08' W 120°51'1919.4
2015-Aug-17 11:33N 27°56' W 120°35'1919.1
2015-Aug-17 10:33N 27°43' W 120°18'1919.3
2015-Aug-17 09:33N 27°31' W 120°01'1919.4
2015-Aug-17 08:33N 27°18' W 119°45'2019.5
2015-Aug-17 07:33N 27°05' W 119°28'1919.5
2015-Aug-17 06:33N 26°53' W 119°12'1919.2
2015-Aug-17 05:33N 26°40' W 118°55'2519.4
2015-Aug-17 04:17N 26°24' W 118°35'1419.3
2015-Aug-17 03:33N 26°15' W 118°23'2019.4
2015-Aug-17 02:33N 26°02' W 118°07'1919.5
2015-Aug-17 01:33N 25°49' W 117°50'2119.5
2015-Aug-17 00:28N 25°35' W 117°33'  
Track history (hours):
 
Tides and Currents Weather Stations Pressure Air Temp Water Temp Dewpoint Dewpoint Depression Visibility Wind Speed Wind Dir Waves Ship Positions

Cosco Aden

Last reported at 2015-Aug-24 23:00 UTC. Time now 2015-Sep-01 14:11 UTC.
Position N 49°24' E 177°36'.

Length 261 m; draft 10 m.

Type: Other ship. MMSI: 477765900.

Wind from 050 at 20 knots

Waves 2.5 meters (8 feet)

Barometer 1016.0 mb
Air temperature 12.0 ° C
Visibility: greater than 2.2 NM
Water temperature 12.0 ° C

Date/timePositionNaut miles runAvg speedWind from/ knotsBaromVisibWave heightAir tempDewpointWater temp
2015-Aug-24 23:00N 49°24' E 177°36'   050 / 201016.0 2.2 2.512.0 12.0
2015-Aug-19 02:13N 35°23' W 132°08'4119.4
2015-Aug-19 00:07N 35°01' W 131°26'1219.5
2015-Aug-18 23:30N 34°54' W 131°14'6019.2
2015-Aug-18 20:23N 34°20' W 130°14'1719.1
2015-Aug-18 19:30N 34°10' W 129°58'2119.0
2015-Aug-18 18:24N 33°58' W 129°37'2119.0
2015-Aug-18 17:17N 33°45' W 129°16'1718.9
2015-Aug-18 16:23N 33°35' W 128°60'12918.9
2015-Aug-18 09:33N 32°19' W 126°56'1918.7
2015-Aug-18 08:32N 32°07' W 126°38'2018.5
2015-Aug-18 07:27N 31°55' W 126°19'6118.7
2015-Aug-18 04:12N 31°18' W 125°23'119.0
2015-Aug-18 04:09N 31°17' W 125°22'019.6
2015-Aug-18 04:08N 31°17' W 125°22'1219.0
2015-Aug-18 03:30N 31°10' W 125°11'1819.0
2015-Aug-18 02:33N 30°59' W 124°54'1919.2
2015-Aug-18 01:33N 30°47' W 124°36'1919.1
2015-Aug-18 00:33N 30°36' W 124°19'1919.0
2015-Aug-17 23:33N 30°24' W 124°02'1919.2
2015-Aug-17 22:33N 30°12' W 123°44'1919.4
2015-Aug-17 21:33N 29°60' W 123°27'1919.4
2015-Aug-17 20:33N 29°47' W 123°09'1919.5
2015-Aug-17 19:33N 29°35' W 122°52'2019.5
2015-Aug-17 18:33N 29°23' W 122°34'2019.5
2015-Aug-17 17:33N 29°11' W 122°17'1919.4
2015-Aug-17 16:33N 28°58' W 122°00'1919.4
2015-Aug-17 15:33N 28°45' W 121°43'2019.6
2015-Aug-17 14:33N 28°33' W 121°26'2019.7
2015-Aug-17 13:33N 28°21' W 121°09'2019.6
2015-Aug-17 12:33N 28°08' W 120°51'1919.4
2015-Aug-17 11:33N 27°56' W 120°35'1919.1
2015-Aug-17 10:33N 27°43' W 120°18'1919.3
2015-Aug-17 09:33N 27°31' W 120°01'1919.4
2015-Aug-17 08:33N 27°18' W 119°45'2019.5
2015-Aug-17 07:33N 27°05' W 119°28'1919.5
2015-Aug-17 06:33N 26°53' W 119°12'1919.2
2015-Aug-17 05:33N 26°40' W 118°55'2519.4
2015-Aug-17 04:17N 26°24' W 118°35'1419.3
2015-Aug-17 03:33N 26°15' W 118°23'2019.4
2015-Aug-17 02:33N 26°02' W 118°07'1919.5
2015-Aug-17 01:33N 25°49' W 117°50'2119.5
2015-Aug-17 00:28N 25°35' W 117°33'  

Dump ship's entire track history